createdAt,value
2023-01-06T00:01:10.275Z,92.33
2023-01-06T00:03:40.863Z,92.36
2023-01-06T00:06:14.101Z,92.36
2023-01-06T00:08:44.390Z,92.34
2023-01-06T00:11:16.293Z,92.32
2023-01-06T00:13:46.682Z,92.43
2023-01-06T00:16:18.872Z,92.53
2023-01-06T00:18:49.299Z,92.37
2023-01-06T00:21:19.646Z,92.33
2023-01-06T00:23:50.003Z,92.45
2023-01-06T00:26:20.450Z,92.68
2023-01-06T00:28:52.974Z,92.63
2023-01-06T00:31:23.924Z,92.51
2023-01-06T00:33:54.789Z,92.40
2023-01-06T00:36:25.413Z,92.48
2023-01-06T00:38:55.782Z,92.46
2023-01-06T00:41:44.097Z,92.44
2023-01-06T00:44:14.557Z,92.29
2023-01-06T00:46:45.110Z,92.29
2023-01-06T00:49:15.577Z,92.45
2023-01-06T00:51:46.125Z,92.67
2023-01-06T00:54:16.970Z,92.83
2023-01-06T00:56:49.226Z,92.75
2023-01-06T00:59:23.286Z,92.73
2023-01-06T01:01:55.917Z,92.59
2023-01-06T01:04:27.211Z,92.50
2023-01-06T01:06:57.594Z,92.44
2023-01-06T01:09:29.488Z,92.45
2023-01-06T01:12:12.803Z,92.20
2023-01-06T01:14:47.400Z,92.21
2023-01-06T01:17:20.166Z,92.29
2023-01-06T01:19:51.614Z,92.47
2023-01-06T01:22:22.445Z,92.39
2023-01-06T01:24:52.754Z,92.30
2023-01-06T01:27:23.099Z,92.13
2023-01-06T01:29:53.476Z,92.17
2023-01-06T01:32:23.850Z,92.24
2023-01-06T01:34:54.697Z,92.30
2023-01-06T01:37:25.188Z,92.26
2023-01-06T01:39:55.542Z,92.10
2023-01-06T01:42:25.897Z,92.15
2023-01-06T01:45:03.198Z,92.19
2023-01-06T01:47:46.154Z,92.15
2023-01-06T01:50:26.214Z,92.09
2023-01-06T01:52:59.831Z,92.19
2023-01-06T01:55:30.718Z,92.14
2023-01-06T01:58:03.784Z,92.16
2023-01-06T02:00:34.540Z,92.04
2023-01-06T02:03:05.432Z,92.13
2023-01-06T02:05:37.973Z,92.21
2023-01-06T02:08:15.035Z,92.18
2023-01-06T02:10:45.406Z,92.02
2023-01-06T02:13:16.481Z,92.08
2023-01-06T02:15:46.935Z,91.86
2023-01-06T02:18:30.633Z,91.87
2023-01-06T02:21:22.261Z,92.01
2023-01-06T02:24:23.466Z,92.08
2023-01-06T02:27:26.155Z,92.09
2023-01-06T02:30:16.869Z,92.18
2023-01-06T02:32:58.558Z,92.10
2023-01-06T02:35:57.994Z,92.25
2023-01-06T02:38:39.283Z,92.36
2023-01-06T02:41:18.567Z,92.52
2023-01-06T02:44:00.740Z,92.66
2023-01-06T02:46:43.162Z,92.86
2023-01-06T02:49:20.093Z,93.05
2023-01-06T02:51:55.165Z,93.10
2023-01-06T02:54:31.456Z,92.95
2023-01-06T02:57:07.945Z,92.74
2023-01-06T02:59:40.823Z,92.71
2023-01-06T03:02:11.978Z,92.72
2023-01-06T03:04:44.872Z,92.77
2023-01-06T03:07:13.875Z,92.92
2023-01-06T03:09:44.599Z,92.85
2023-01-06T03:12:17.808Z,93.06
2023-01-06T03:14:49.933Z,93.01
2023-01-06T03:17:20.521Z,93.09
2023-01-06T03:19:51.450Z,93.03
2023-01-06T03:22:22.399Z,92.98
2023-01-06T03:24:52.757Z,92.85
2023-01-06T03:27:27.763Z,92.63
2023-01-06T03:29:58.889Z,92.76
2023-01-06T03:32:33.416Z,92.72
2023-01-06T03:35:16.872Z,92.65
2023-01-06T03:37:54.200Z,92.34
2023-01-06T03:40:32.302Z,92.01
2023-01-06T03:43:16.450Z,92.13
2023-01-06T03:45:56.311Z,92.23
2023-01-06T03:48:33.921Z,92.42
2023-01-06T03:51:10.057Z,92.39
2023-01-06T03:53:46.661Z,92.39
2023-01-06T03:56:20.151Z,92.42
2023-01-06T03:58:53.657Z,92.41
2023-01-06T04:01:24.995Z,92.45
2023-01-06T04:03:56.328Z,92.42
2023-01-06T04:06:29.347Z,92.22
2023-01-06T04:08:59.731Z,92.26
2023-01-06T04:11:47.579Z,92.25
2023-01-06T04:14:17.992Z,92.28
2023-01-06T04:16:48.681Z,92.32
2023-01-06T04:19:19.093Z,92.32
2023-01-06T04:21:50.110Z,92.27
2023-01-06T04:24:20.922Z,92.15
2023-01-06T04:26:51.405Z,92.12
2023-01-06T04:29:23.012Z,92.18
2023-01-06T04:31:56.221Z,92.26
2023-01-06T04:34:26.726Z,92.34
2023-01-06T04:36:57.403Z,92.21
2023-01-06T04:39:28.002Z,92.35
2023-01-06T04:41:58.447Z,92.37
2023-01-06T04:44:28.819Z,92.41
2023-01-06T04:46:59.157Z,92.46
2023-01-06T04:49:29.589Z,92.51
2023-01-06T04:51:59.905Z,92.50
2023-01-06T04:54:30.305Z,92.43
2023-01-06T04:57:00.639Z,92.33
2023-01-06T04:59:31.247Z,92.22
2023-01-06T05:02:01.616Z,92.21
2023-01-06T05:04:40.035Z,92.05
2023-01-06T05:07:17.371Z,92.12
2023-01-06T05:09:47.987Z,92.11
2023-01-06T05:12:18.504Z,92.04
2023-01-06T05:14:48.804Z,91.97
2023-01-06T05:17:19.106Z,92.01
2023-01-06T05:19:49.487Z,92.03
2023-01-06T05:22:19.858Z,91.88
2023-01-06T05:24:50.183Z,91.58
2023-01-06T05:27:20.590Z,91.64
2023-01-06T05:29:51.074Z,91.44
2023-01-06T05:32:21.490Z,91.46
2023-01-06T05:34:51.811Z,91.53
2023-01-06T05:37:22.183Z,91.45
2023-01-06T05:39:52.558Z,91.44
2023-01-06T05:42:22.806Z,91.20
2023-01-06T05:44:53.118Z,91.13
2023-01-06T05:47:23.664Z,91.23
2023-01-06T05:49:53.985Z,91.04
2023-01-06T05:52:24.489Z,90.93
2023-01-06T05:54:54.829Z,90.83
2023-01-06T05:57:25.101Z,90.73
2023-01-06T05:59:55.416Z,90.65
2023-01-06T06:02:25.774Z,90.64
2023-01-06T06:04:56.108Z,90.60
2023-01-06T06:07:26.431Z,90.59
2023-01-06T06:09:56.852Z,90.75
2023-01-06T06:12:27.218Z,90.57
2023-01-06T06:14:57.514Z,90.41
2023-01-06T06:17:27.946Z,90.38
2023-01-06T06:19:58.338Z,90.41
2023-01-06T06:22:28.677Z,90.30
2023-01-06T06:24:59.210Z,90.43
2023-01-06T06:27:30.058Z,90.36
2023-01-06T06:30:00.457Z,90.39
2023-01-06T06:32:33.272Z,90.24
2023-01-06T06:35:03.671Z,90.05
2023-01-06T06:37:33.989Z,89.83
2023-01-06T06:40:04.782Z,89.86
2023-01-06T06:42:35.253Z,90.13
2023-01-06T06:45:06.495Z,89.81
2023-01-06T06:47:37.813Z,89.56
2023-01-06T06:50:10.386Z,89.55
2023-01-06T06:52:40.672Z,89.41
2023-01-06T06:55:12.225Z,89.23
2023-01-06T06:57:42.617Z,89.02
2023-01-06T07:00:15.119Z,89.03
2023-01-06T07:02:45.457Z,88.86
2023-01-06T07:05:16.012Z,89.01
2023-01-06T07:07:46.559Z,89.11
2023-01-06T07:10:18.004Z,88.91
2023-01-06T07:12:48.314Z,88.97
2023-01-06T07:15:18.988Z,89.07
2023-01-06T07:17:49.357Z,89.13
2023-01-06T07:20:20.811Z,89.17
2023-01-06T07:22:53.127Z,89.19
2023-01-06T07:25:24.816Z,89.21
2023-01-06T07:28:00.357Z,89.29
2023-01-06T07:30:32.839Z,89.28
2023-01-06T07:33:04.630Z,89.31
2023-01-06T07:35:36.859Z,89.27
2023-01-06T07:38:10.401Z,89.30
2023-01-06T07:40:42.856Z,89.34
2023-01-06T07:43:15.159Z,89.39
2023-01-06T07:45:48.911Z,89.49
2023-01-06T07:48:20.212Z,89.22
2023-01-06T07:50:52.886Z,89.28
2023-01-06T07:53:25.168Z,89.19
2023-01-06T07:55:56.885Z,89.28
2023-01-06T07:58:28.790Z,89.29
2023-01-06T08:01:05.946Z,89.19
2023-01-06T08:03:37.182Z,89.21
2023-01-06T08:06:13.923Z,89.15
2023-01-06T08:08:45.785Z,88.98
2023-01-06T08:11:16.855Z,88.95
2023-01-06T08:13:49.235Z,89.15
2023-01-06T08:16:21.922Z,89.04
2023-01-06T08:18:53.253Z,88.86
2023-01-06T08:27:44.332Z,88.83
2023-01-06T08:30:21.438Z,88.81
2023-01-06T08:32:51.947Z,88.73
2023-01-06T08:35:22.330Z,88.64
2023-01-06T08:37:52.696Z,88.42
2023-01-06T08:40:23.009Z,88.58
2023-01-06T08:42:53.417Z,88.40
2023-01-06T08:45:23.709Z,88.44
2023-01-06T08:47:54.016Z,88.27
2023-01-06T08:50:25.893Z,88.28
2023-01-06T08:52:56.926Z,88.31
2023-01-06T08:55:27.335Z,88.22
2023-01-06T08:57:57.729Z,88.26
2023-01-06T09:00:28.102Z,88.29
2023-01-06T09:02:58.435Z,88.16
2023-01-06T09:05:28.818Z,88.01
2023-01-06T09:07:59.276Z,87.86
2023-01-06T09:10:29.971Z,88.01
2023-01-06T09:13:00.399Z,88.07
2023-01-06T09:15:30.754Z,87.85
2023-01-06T09:18:01.052Z,87.83
2023-01-06T09:20:33.576Z,87.65
2023-01-06T09:23:04.079Z,87.84
2023-01-06T09:25:34.469Z,87.89
2023-01-06T09:28:04.839Z,87.89
2023-01-06T09:30:35.270Z,87.50
2023-01-06T09:33:05.800Z,87.67
2023-01-06T09:35:36.185Z,87.72
2023-01-06T09:38:06.519Z,87.38
2023-01-06T09:40:46.548Z,87.22
2023-01-06T09:43:24.924Z,86.75
2023-01-06T09:45:57.357Z,86.58
2023-01-06T09:48:30.792Z,86.08
2023-01-06T09:51:04.543Z,86.17
2023-01-06T09:53:38.920Z,86.09
2023-01-06T09:56:13.394Z,85.70
2023-01-06T09:58:46.987Z,85.55
2023-01-06T10:01:20.593Z,85.31
2023-01-06T10:03:51.027Z,85.34
2023-01-06T10:06:30.922Z,84.97
2023-01-06T10:09:08.401Z,84.73
2023-01-06T10:11:47.346Z,84.23
2023-01-06T10:14:22.529Z,84.41
2023-01-06T10:17:06.536Z,84.40
2023-01-06T10:19:51.790Z,84.31
2023-01-06T10:22:29.381Z,84.15
2023-01-06T10:25:05.935Z,83.95
2023-01-06T10:27:39.187Z,83.46
2023-01-06T10:30:19.690Z,83.30
2023-01-06T10:32:51.164Z,83.71
2023-01-06T10:35:30.325Z,83.38
2023-01-06T10:38:04.052Z,83.03
2023-01-06T10:40:36.257Z,83.38
2023-01-06T10:43:09.157Z,82.98
2023-01-06T10:45:39.349Z,82.60
2023-01-06T10:48:14.558Z,82.68
2023-01-06T10:50:45.292Z,82.61
2023-01-06T10:53:17.439Z,82.38
2023-01-06T10:55:50.850Z,81.96
2023-01-06T10:58:26.794Z,81.67
2023-01-06T11:01:00.219Z,81.77
2023-01-06T11:03:33.694Z,81.44
2023-01-06T11:06:08.790Z,81.33
2023-01-06T11:08:39.738Z,81.16
2023-01-06T11:11:27.241Z,81.30
2023-01-06T11:14:00.543Z,80.69
2023-01-06T11:16:32.569Z,80.45
2023-01-06T11:19:05.618Z,80.30
2023-01-06T11:21:46.774Z,80.29
2023-01-06T11:24:22.197Z,80.11
2023-01-06T11:26:56.852Z,80.19
2023-01-06T11:29:33.247Z,80.23
2023-01-06T11:32:06.808Z,80.28
2023-01-06T11:34:37.095Z,80.09
2023-01-06T11:37:07.794Z,80.11
2023-01-06T11:39:40.848Z,80.22
2023-01-06T11:42:15.266Z,80.20
2023-01-06T11:44:44.150Z,80.40
2023-01-06T11:47:18.753Z,80.23
2023-01-06T11:49:52.200Z,80.24
2023-01-06T11:52:26.196Z,79.84
2023-01-06T11:55:12.841Z,79.46
2023-01-06T11:57:47.571Z,79.56
2023-01-06T12:00:33.229Z,79.54
2023-01-06T12:03:07.645Z,79.07
2023-01-06T12:05:46.302Z,78.99
2023-01-06T12:08:21.430Z,78.37
2023-01-06T12:10:56.875Z,78.22
2023-01-06T12:13:28.144Z,77.98
2023-01-06T12:16:03.381Z,77.33
2023-01-06T12:18:36.076Z,77.52
2023-01-06T12:21:07.524Z,77.17
2023-01-06T12:23:40.479Z,76.31
2023-01-06T12:26:16.722Z,74.88
2023-01-06T12:28:48.636Z,71.15
2023-01-06T12:31:27.776Z,65.19
2023-01-06T12:34:04.441Z,60.12
2023-01-06T12:36:39.296Z,57.42
2023-01-06T12:39:14.597Z,55.59
2023-01-06T12:41:50.726Z,53.44
2023-01-06T12:44:28.483Z,51.87
2023-01-06T12:47:02.907Z,48.95
2023-01-06T12:49:39.806Z,48.08
2023-01-06T12:52:13.295Z,47.81
2023-01-06T12:54:46.069Z,50.58
2023-01-06T12:57:26.420Z,51.33
2023-01-06T13:00:08.418Z,51.32
2023-01-06T13:02:56.356Z,51.93
2023-01-06T13:05:35.603Z,53.63
2023-01-06T13:08:20.488Z,55.00
2023-01-06T13:10:53.987Z,55.96
2023-01-06T13:13:47.187Z,57.42
2023-01-06T13:16:16.753Z,58.66
2023-01-06T13:18:51.358Z,59.85
2023-01-06T13:21:22.696Z,60.69
2023-01-06T13:24:06.918Z,61.66
2023-01-06T13:26:57.933Z,62.75
2023-01-06T13:29:37.710Z,64.05
2023-01-06T13:32:32.516Z,64.72
2023-01-06T13:35:31.898Z,65.74
2023-01-06T13:38:14.123Z,66.46
2023-01-06T13:40:45.246Z,66.87
2023-01-06T13:43:21.429Z,67.20
2023-01-06T13:45:54.512Z,67.22
2023-01-06T13:48:27.663Z,67.00
2023-01-06T13:50:59.137Z,66.86
2023-01-06T13:53:30.107Z,67.10
2023-01-06T13:56:31.059Z,67.26
2023-01-06T13:59:22.360Z,67.14
2023-01-06T14:01:53.297Z,67.34
2023-01-06T14:04:48.456Z,67.68
2023-01-06T14:07:34.376Z,68.05
2023-01-06T14:10:06.164Z,68.30
2023-01-06T14:12:37.684Z,68.13
2023-01-06T14:15:19.565Z,68.43
2023-01-06T14:17:49.981Z,68.74
2023-01-06T14:20:29.810Z,68.82
2023-01-06T14:23:05.473Z,69.00
2023-01-06T14:25:40.358Z,69.20
2023-01-06T14:28:29.030Z,69.31
2023-01-06T14:31:48.741Z,69.88
2023-01-06T14:34:23.822Z,70.11
2023-01-06T14:36:56.925Z,70.28
2023-01-06T14:39:29.314Z,70.57
2023-01-06T14:42:03.952Z,70.58
2023-01-06T14:44:38.441Z,70.67
2023-01-06T14:47:14.516Z,70.90
2023-01-06T14:49:51.077Z,71.01
2023-01-06T14:52:24.585Z,71.16
2023-01-06T14:54:55.847Z,71.47
2023-01-06T14:57:35.899Z,71.50
2023-01-06T15:00:18.470Z,71.52
2023-01-06T15:02:50.976Z,71.75
2023-01-06T15:05:23.316Z,72.04
2023-01-06T15:08:01.439Z,72.05
2023-01-06T15:10:35.361Z,72.13
2023-01-06T15:13:16.005Z,72.37
2023-01-06T15:15:46.736Z,72.64
2023-01-06T15:18:17.434Z,72.84
2023-01-06T15:20:48.624Z,72.99
2023-01-06T15:23:21.417Z,73.20
2023-01-06T15:25:53.199Z,73.39
2023-01-06T15:28:28.432Z,73.68
2023-01-06T15:30:59.464Z,73.96
2023-01-06T15:33:34.378Z,74.19
2023-01-06T15:36:05.496Z,74.35
2023-01-06T15:38:37.484Z,74.53
2023-01-06T15:41:28.735Z,74.88
2023-01-06T15:43:59.575Z,75.27
2023-01-06T15:46:38.795Z,75.70
2023-01-06T15:49:17.919Z,76.01
2023-01-06T15:51:56.150Z,76.27
2023-01-06T15:54:28.390Z,76.66
2023-01-06T15:57:11.519Z,76.82
2023-01-06T15:59:55.953Z,77.20
2023-01-06T16:02:30.135Z,77.41
2023-01-06T16:05:02.225Z,77.63
2023-01-06T16:07:43.259Z,77.79
2023-01-06T16:10:32.080Z,77.87
2023-01-06T16:13:26.036Z,77.89
2023-01-06T16:15:59.232Z,78.11
2023-01-06T16:18:32.132Z,78.34
2023-01-06T16:21:01.272Z,78.40
2023-01-06T16:23:34.163Z,78.33
2023-01-06T16:26:19.895Z,78.43
2023-01-06T16:28:52.530Z,78.45
2023-01-06T16:31:34.127Z,78.45
2023-01-06T16:34:27.746Z,78.49
2023-01-06T16:37:00.005Z,78.53
2023-01-06T16:39:30.672Z,78.49
2023-01-06T16:42:43.361Z,78.60
2023-01-06T16:45:21.953Z,78.68
2023-01-06T16:47:52.810Z,78.76
2023-01-06T16:50:25.909Z,78.84
2023-01-06T16:53:07.389Z,78.82
2023-01-06T16:55:38.690Z,78.88
2023-01-06T16:58:16.677Z,78.90
2023-01-06T17:00:51.816Z,78.92
2023-01-06T17:03:23.907Z,79.06
2023-01-06T17:05:54.351Z,79.12
2023-01-06T17:08:29.360Z,79.15
2023-01-06T17:11:04.015Z,79.12
2023-01-06T17:13:39.611Z,79.33
2023-01-06T17:16:16.709Z,79.36
2023-01-06T17:18:53.295Z,79.32
2023-01-06T17:21:25.774Z,79.40
2023-01-06T17:23:58.609Z,79.30
2023-01-06T17:26:27.796Z,79.62
2023-01-06T17:28:59.514Z,79.81
2023-01-06T17:31:33.242Z,79.83
2023-01-06T17:34:16.227Z,79.91
2023-01-06T17:36:48.114Z,79.84
2023-01-06T17:39:22.763Z,80.09
2023-01-06T17:41:59.416Z,80.22
2023-01-06T17:44:37.752Z,80.34
2023-01-06T17:47:17.965Z,80.44
2023-01-06T17:49:50.770Z,80.57
2023-01-06T17:52:22.531Z,80.71
2023-01-06T17:55:16.154Z,81.03
2023-01-06T17:57:47.474Z,80.95
2023-01-06T18:00:25.694Z,81.17
2023-01-06T18:02:58.823Z,81.33
2023-01-06T18:06:13.592Z,81.36
2023-01-06T18:08:44.467Z,81.24
2023-01-06T18:11:31.214Z,81.37
2023-01-06T18:14:15.217Z,81.56
2023-01-06T18:16:47.642Z,81.50
2023-01-06T18:19:33.167Z,81.63
2023-01-06T18:22:06.467Z,81.55
2023-01-06T18:24:39.091Z,81.45
2023-01-06T18:27:20.515Z,81.67
2023-01-06T18:29:50.962Z,81.59
2023-01-06T18:32:32.333Z,81.63
2023-01-06T18:35:05.753Z,81.62
2023-01-06T18:37:37.863Z,81.70
2023-01-06T18:40:12.754Z,81.69
2023-01-06T18:42:44.842Z,81.64
2023-01-06T18:45:22.540Z,81.77
2023-01-06T18:47:55.506Z,81.79
2023-01-06T18:50:37.954Z,81.84
2023-01-06T18:53:19.468Z,81.80
2023-01-06T18:55:51.239Z,81.85
2023-01-06T18:58:46.118Z,81.97
2023-01-06T19:01:20.159Z,81.96
2023-01-06T19:03:59.789Z,81.87
2023-01-06T19:06:39.931Z,81.85
2023-01-06T19:09:20.277Z,81.70
2023-01-06T19:11:55.690Z,81.83
2023-01-06T19:14:26.173Z,81.86
2023-01-06T19:16:57.411Z,81.95
2023-01-06T19:19:33.066Z,82.04
2023-01-06T19:22:22.950Z,82.04
2023-01-06T19:24:56.654Z,81.93
2023-01-06T19:27:43.087Z,81.90
2023-01-06T19:30:40.461Z,82.09
2023-01-06T19:33:23.162Z,82.04
2023-01-06T19:35:58.025Z,82.26
2023-01-06T19:38:30.484Z,82.20
2023-01-06T19:41:02.473Z,82.14
2023-01-06T19:43:34.575Z,82.19
2023-01-06T19:46:11.129Z,82.10
2023-01-06T19:48:43.178Z,82.05
2023-01-06T19:51:25.955Z,82.04
2023-01-06T19:53:58.513Z,82.07
2023-01-06T19:56:30.788Z,82.30
2023-01-06T19:59:04.104Z,82.44
2023-01-06T20:01:35.456Z,82.40
2023-01-06T20:04:11.594Z,82.39
2023-01-06T20:06:41.983Z,82.42
2023-01-06T20:09:12.347Z,82.38
2023-01-06T20:11:43.308Z,82.38
2023-01-06T20:14:16.753Z,82.38
2023-01-06T20:16:47.581Z,82.49
2023-01-06T20:19:18.247Z,82.64
2023-01-06T20:21:48.664Z,82.58
2023-01-06T20:24:19.251Z,82.65
2023-01-06T20:26:49.873Z,82.77
2023-01-06T20:29:20.186Z,82.64
2023-01-06T20:31:50.731Z,82.62
2023-01-06T20:34:21.431Z,82.62
2023-01-06T20:36:52.006Z,82.58
2023-01-06T20:39:22.465Z,82.60
2023-01-06T20:41:52.806Z,82.62
2023-01-06T20:44:23.194Z,82.81
2023-01-06T20:46:53.963Z,82.67
2023-01-06T20:49:24.308Z,82.69
2023-01-06T20:51:54.726Z,82.70
2023-01-06T20:54:25.050Z,82.70
2023-01-06T20:56:55.386Z,82.88
2023-01-06T20:59:25.806Z,83.02
2023-01-06T21:01:56.399Z,82.94
2023-01-06T21:04:27.091Z,83.18
2023-01-06T21:06:58.014Z,83.21
2023-01-06T21:09:29.329Z,83.19
2023-01-06T21:11:59.788Z,83.33
2023-01-06T21:14:30.954Z,83.26
2023-01-06T21:17:01.410Z,83.39
2023-01-06T21:19:32.177Z,83.46
2023-01-06T21:22:02.589Z,83.47
2023-01-06T21:24:32.965Z,83.50
2023-01-06T21:27:03.396Z,83.51
2023-01-06T21:29:33.774Z,83.47
2023-01-06T21:32:04.479Z,83.63
2023-01-06T21:34:34.931Z,83.60
2023-01-06T21:37:05.615Z,83.51
2023-01-06T21:39:36.231Z,83.62
2023-01-06T21:42:24.461Z,83.77
2023-01-06T21:44:54.988Z,83.87
2023-01-06T21:47:25.502Z,83.89
2023-01-06T21:49:56.039Z,83.94
2023-01-06T21:52:26.422Z,83.99
2023-01-06T21:54:59.038Z,84.14
2023-01-06T21:57:30.385Z,84.17
2023-01-06T22:00:01.310Z,84.19
2023-01-06T22:02:31.792Z,84.32
2023-01-06T22:05:02.328Z,84.24
2023-01-06T22:07:33.649Z,84.33
2023-01-06T22:10:06.107Z,84.26
2023-01-06T22:12:37.040Z,84.47
2023-01-06T22:15:09.930Z,84.48
2023-01-06T22:17:38.788Z,84.46
2023-01-06T22:20:11.709Z,84.37
2023-01-06T22:22:40.590Z,84.50
2023-01-06T22:25:12.433Z,84.64
2023-01-06T22:27:42.967Z,84.82
2023-01-06T22:30:14.432Z,84.88
2023-01-06T22:32:48.999Z,84.97
2023-01-06T22:35:20.538Z,85.08
2023-01-06T22:37:51.019Z,85.19
2023-01-06T22:40:21.767Z,85.32
2023-01-06T22:42:52.309Z,85.51
2023-01-06T22:45:22.769Z,85.60
2023-01-06T22:47:53.423Z,85.48
2023-01-06T22:50:23.819Z,85.68
2023-01-06T22:52:54.627Z,85.82
2023-01-06T22:55:25.090Z,85.92
2023-01-06T22:57:55.391Z,85.99
2023-01-06T23:00:25.704Z,86.09
2023-01-06T23:02:57.772Z,86.18
2023-01-06T23:05:28.975Z,86.18
2023-01-06T23:07:59.427Z,86.32
2023-01-06T23:10:29.859Z,86.28
2023-01-06T23:13:00.471Z,86.22
2023-01-06T23:15:30.820Z,86.15
2023-01-06T23:18:01.188Z,86.25
2023-01-06T23:20:31.618Z,86.15
2023-01-06T23:23:01.934Z,86.26
2023-01-06T23:25:32.268Z,86.49
2023-01-06T23:28:02.696Z,86.57
2023-01-06T23:30:33.338Z,86.47
2023-01-06T23:33:03.881Z,86.48
2023-01-06T23:35:34.358Z,86.67
2023-01-06T23:38:04.700Z,86.71
2023-01-06T23:40:34.992Z,86.62
2023-01-06T23:43:05.805Z,86.63
2023-01-06T23:45:36.183Z,86.65
2023-01-06T23:48:07.026Z,86.53
2023-01-06T23:50:37.467Z,86.64
2023-01-06T23:53:07.924Z,86.71
2023-01-06T23:55:38.375Z,86.73
2023-01-06T23:58:08.935Z,86.83
